sensor_id;sensor_type;location;lat;lon;timestamp;P1;durP1;ratioP1;P2;durP2;ratioP2
72161;SDS011;60047;51.644;5.842;2022-12-20T00:02:47;3.1;;;1.7;;
72161;SDS011;60047;51.644;5.842;2022-12-20T00:07:47;2.5;;;1.5;;
72161;SDS011;60047;51.644;5.842;2022-12-20T00:12:47;2.5;;;1.7;;
72161;SDS011;60047;51.644;5.842;2022-12-20T00:17:47;1.8;;;1.3;;
72161;SDS011;60047;51.644;5.842;2022-12-20T00:22:47;2.0;;;1.5;;
72161;SDS011;60047;51.644;5.842;2022-12-20T00:27:47;2.3;;;1.5;;
72161;SDS011;60047;51.644;5.842;2022-12-20T00:32:47;3.1;;;1.8;;
72161;SDS011;60047;51.644;5.842;2022-12-20T00:37:47;2.8;;;1.5;;
72161;SDS011;60047;51.644;5.842;2022-12-20T00:42:47;3.3;;;1.6;;
72161;SDS011;60047;51.644;5.842;2022-12-20T00:47:47;2.4;;;1.5;;
72161;SDS011;60047;51.644;5.842;2022-12-20T00:52:47;3.0;;;1.5;;
72161;SDS011;60047;51.644;5.842;2022-12-20T00:57:47;2.4;;;1.7;;
72161;SDS011;60047;51.644;5.842;2022-12-20T01:02:47;4.1;;;1.5;;
72161;SDS011;60047;51.644;5.842;2022-12-20T01:07:47;2.8;;;1.4;;
72161;SDS011;60047;51.644;5.842;2022-12-20T01:12:47;2.4;;;1.6;;
72161;SDS011;60047;51.644;5.842;2022-12-20T01:17:47;3.4;;;1.6;;
72161;SDS011;60047;51.644;5.842;2022-12-20T01:22:47;2.0;;;1.4;;
72161;SDS011;60047;51.644;5.842;2022-12-20T01:27:47;2.4;;;1.3;;
72161;SDS011;60047;51.644;5.842;2022-12-20T01:32:47;2.3;;;1.5;;
72161;SDS011;60047;51.644;5.842;2022-12-20T01:37:47;2.4;;;1.3;;
72161;SDS011;60047;51.644;5.842;2022-12-20T01:42:47;1.9;;;1.4;;
72161;SDS011;60047;51.644;5.842;2022-12-20T01:47:47;1.4;;;1.1;;
72161;SDS011;60047;51.644;5.842;2022-12-20T01:52:47;2.8;;;1.5;;
72161;SDS011;60047;51.644;5.842;2022-12-20T01:57:59;3.8;;;1.4;;
72161;SDS011;60047;51.644;5.842;2022-12-20T02:02:48;3.0;;;1.5;;
72161;SDS011;60047;51.644;5.842;2022-12-20T02:07:48;3.3;;;1.6;;
72161;SDS011;60047;51.644;5.842;2022-12-20T02:12:56;1.9;;;1.1;;
72161;SDS011;60047;51.644;5.842;2022-12-20T02:17:57;2.1;;;1.3;;
72161;SDS011;60047;51.644;5.842;2022-12-20T02:24:36;1.9;;;1.1;;
72161;SDS011;60047;51.644;5.842;2022-12-20T02:30:10;1.3;;;1.1;;
72161;SDS011;60047;51.644;5.842;2022-12-20T02:32:50;1.7;;;1.2;;
72161;SDS011;60047;51.644;5.842;2022-12-20T02:37:48;2.4;;;1.4;;
72161;SDS011;60047;51.644;5.842;2022-12-20T02:42:48;1.9;;;1.1;;
72161;SDS011;60047;51.644;5.842;2022-12-20T02:48:08;2.3;;;1.2;;
72161;SDS011;60047;51.644;5.842;2022-12-20T02:52:48;2.2;;;1.0;;
72161;SDS011;60047;51.644;5.842;2022-12-20T02:58:20;2.0;;;1.1;;
72161;SDS011;60047;51.644;5.842;2022-12-20T03:02:48;1.2;;;1.1;;
72161;SDS011;60047;51.644;5.842;2022-12-20T03:07:48;1.5;;;1.1;;
72161;SDS011;60047;51.644;5.842;2022-12-20T03:12:48;2.4;;;1.2;;
72161;SDS011;60047;51.644;5.842;2022-12-20T03:17:48;1.5;;;1.0;;
72161;SDS011;60047;51.644;5.842;2022-12-20T03:22:48;1.6;;;1.1;;
72161;SDS011;60047;51.644;5.842;2022-12-20T03:27:48;1.3;;;1.1;;
72161;SDS011;60047;51.644;5.842;2022-12-20T03:32:48;1.7;;;1.2;;
72161;SDS011;60047;51.644;5.842;2022-12-20T03:37:48;1.8;;;1.3;;
72161;SDS011;60047;51.644;5.842;2022-12-20T03:42:48;2.2;;;1.1;;
72161;SDS011;60047;51.644;5.842;2022-12-20T03:47:48;1.0;;;0.9;;
72161;SDS011;60047;51.644;5.842;2022-12-20T03:52:48;1.3;;;1.0;;
72161;SDS011;60047;51.644;5.842;2022-12-20T03:57:48;1.7;;;1.1;;
72161;SDS011;60047;51.644;5.842;2022-12-20T04:02:48;2.0;;;1.0;;
72161;SDS011;60047;51.644;5.842;2022-12-20T04:07:48;2.4;;;1.1;;
72161;SDS011;60047;51.644;5.842;2022-12-20T04:12:48;1.9;;;1.1;;
72161;SDS011;60047;51.644;5.842;2022-12-20T04:17:48;1.7;;;1.0;;
72161;SDS011;60047;51.644;5.842;2022-12-20T04:22:48;2.1;;;1.1;;
72161;SDS011;60047;51.644;5.842;2022-12-20T04:27:48;2.2;;;1.3;;
72161;SDS011;60047;51.644;5.842;2022-12-20T04:32:48;2.4;;;1.0;;
72161;SDS011;60047;51.644;5.842;2022-12-20T04:37:48;2.1;;;1.2;;
72161;SDS011;60047;51.644;5.842;2022-12-20T04:42:48;1.7;;;1.2;;
72161;SDS011;60047;51.644;5.842;2022-12-20T04:47:48;1.7;;;0.9;;
72161;SDS011;60047;51.644;5.842;2022-12-20T04:52:48;1.6;;;0.9;;
72161;SDS011;60047;51.644;5.842;2022-12-20T04:57:48;1.2;;;0.9;;
72161;SDS011;60047;51.644;5.842;2022-12-20T05:02:48;1.1;;;0.9;;
72161;SDS011;60047;51.644;5.842;2022-12-20T05:07:48;1.1;;;0.9;;
72161;SDS011;60047;51.644;5.842;2022-12-20T05:17:48;1.4;;;1.0;;
72161;SDS011;60047;51.644;5.842;2022-12-20T05:22:48;1.5;;;1.1;;
72161;SDS011;60047;51.644;5.842;2022-12-20T05:27:48;1.3;;;0.9;;
72161;SDS011;60047;51.644;5.842;2022-12-20T05:32:48;1.4;;;1.0;;
72161;SDS011;60047;51.644;5.842;2022-12-20T05:37:48;1.8;;;0.9;;
72161;SDS011;60047;51.644;5.842;2022-12-20T05:42:48;1.3;;;1.0;;
72161;SDS011;60047;51.644;5.842;2022-12-20T05:47:48;1.3;;;0.7;;
72161;SDS011;60047;51.644;5.842;2022-12-20T05:52:48;1.5;;;0.9;;
72161;SDS011;60047;51.644;5.842;2022-12-20T05:57:48;1.1;;;0.8;;
72161;SDS011;60047;51.644;5.842;2022-12-20T06:02:48;0.9;;;0.8;;
72161;SDS011;60047;51.644;5.842;2022-12-20T06:07:48;1.3;;;0.7;;
72161;SDS011;60047;51.644;5.842;2022-12-20T06:12:48;1.1;;;0.9;;
72161;SDS011;60047;51.644;5.842;2022-12-20T06:17:48;1.2;;;0.8;;
72161;SDS011;60047;51.644;5.842;2022-12-20T06:22:48;1.2;;;0.8;;
72161;SDS011;60047;51.644;5.842;2022-12-20T06:27:48;1.2;;;0.9;;
72161;SDS011;60047;51.644;5.842;2022-12-20T06:32:48;0.9;;;0.8;;
72161;SDS011;60047;51.644;5.842;2022-12-20T06:37:48;2.4;;;1.0;;
72161;SDS011;60047;51.644;5.842;2022-12-20T06:42:48;1.1;;;0.8;;
72161;SDS011;60047;51.644;5.842;2022-12-20T06:47:48;1.3;;;0.9;;
72161;SDS011;60047;51.644;5.842;2022-12-20T06:52:48;1.0;;;0.8;;
72161;SDS011;60047;51.644;5.842;2022-12-20T06:57:48;0.9;;;0.7;;
72161;SDS011;60047;51.644;5.842;2022-12-20T07:02:48;1.5;;;0.7;;
72161;SDS011;60047;51.644;5.842;2022-12-20T07:12:48;1.3;;;0.8;;
72161;SDS011;60047;51.644;5.842;2022-12-20T07:17:48;1.0;;;0.8;;
72161;SDS011;60047;51.644;5.842;2022-12-20T07:22:48;1.2;;;0.8;;
72161;SDS011;60047;51.644;5.842;2022-12-20T07:27:48;1.0;;;0.7;;
72161;SDS011;60047;51.644;5.842;2022-12-20T07:32:48;1.3;;;1.0;;
72161;SDS011;60047;51.644;5.842;2022-12-20T07:37:48;1.5;;;0.9;;
72161;SDS011;60047;51.644;5.842;2022-12-20T07:42:48;1.5;;;0.8;;
72161;SDS011;60047;51.644;5.842;2022-12-20T07:47:48;1.1;;;0.8;;
72161;SDS011;60047;51.644;5.842;2022-12-20T07:52:48;1.1;;;0.8;;
72161;SDS011;60047;51.644;5.842;2022-12-20T07:57:49;0.7;;;0.6;;
72161;SDS011;60047;51.644;5.842;2022-12-20T08:03:11;1.8;;;1.0;;
72161;SDS011;60047;51.644;5.842;2022-12-20T08:07:48;0.9;;;0.8;;
72161;SDS011;60047;51.644;5.842;2022-12-20T08:12:49;1.0;;;0.8;;
72161;SDS011;60047;51.644;5.842;2022-12-20T08:17:49;1.3;;;0.8;;
72161;SDS011;60047;51.644;5.842;2022-12-20T08:22:48;1.1;;;0.7;;
72161;SDS011;60047;51.644;5.842;2022-12-20T08:27:48;1.0;;;0.7;;
72161;SDS011;60047;51.644;5.842;2022-12-20T08:32:48;1.1;;;0.8;;
72161;SDS011;60047;51.644;5.842;2022-12-20T08:37:49;0.8;;;0.6;;
72161;SDS011;60047;51.644;5.842;2022-12-20T08:42:48;1.4;;;0.9;;
72161;SDS011;60047;51.644;5.842;2022-12-20T08:47:48;0.7;;;0.7;;
72161;SDS011;60047;51.644;5.842;2022-12-20T08:52:48;0.8;;;0.7;;
72161;SDS011;60047;51.644;5.842;2022-12-20T08:57:48;0.9;;;0.7;;
72161;SDS011;60047;51.644;5.842;2022-12-20T09:02:48;1.0;;;0.8;;
72161;SDS011;60047;51.644;5.842;2022-12-20T09:07:49;1.1;;;0.9;;
72161;SDS011;60047;51.644;5.842;2022-12-20T09:12:48;1.2;;;0.6;;
72161;SDS011;60047;51.644;5.842;2022-12-20T09:17:49;1.1;;;0.8;;
72161;SDS011;60047;51.644;5.842;2022-12-20T09:22:48;1.0;;;0.7;;
72161;SDS011;60047;51.644;5.842;2022-12-20T09:27:49;1.0;;;0.7;;
72161;SDS011;60047;51.644;5.842;2022-12-20T09:32:49;1.8;;;0.8;;
72161;SDS011;60047;51.644;5.842;2022-12-20T09:37:49;1.9;;;1.0;;
72161;SDS011;60047;51.644;5.842;2022-12-20T09:42:49;1.1;;;0.8;;
72161;SDS011;60047;51.644;5.842;2022-12-20T09:47:49;1.0;;;0.7;;
72161;SDS011;60047;51.644;5.842;2022-12-20T09:53:46;1.5;;;0.8;;
72161;SDS011;60047;51.644;5.842;2022-12-20T09:58:22;1.0;;;0.7;;
72161;SDS011;60047;51.644;5.842;2022-12-20T10:02:49;2.9;;;1.0;;
72161;SDS011;60047;51.644;5.842;2022-12-20T10:08:05;1.6;;;0.8;;
72161;SDS011;60047;51.644;5.842;2022-12-20T10:13:36;2.9;;;1.0;;
72161;SDS011;60047;51.644;5.842;2022-12-20T10:18:35;2.4;;;0.7;;
72161;SDS011;60047;51.644;5.842;2022-12-20T10:23:18;4.3;;;1.1;;
72161;SDS011;60047;51.644;5.842;2022-12-20T10:27:50;2.3;;;0.9;;
72161;SDS011;60047;51.644;5.842;2022-12-20T10:32:50;1.4;;;0.8;;
72161;SDS011;60047;51.644;5.842;2022-12-20T10:38:05;2.6;;;1.1;;
72161;SDS011;60047;51.644;5.842;2022-12-20T10:42:49;1.8;;;0.9;;
72161;SDS011;60047;51.644;5.842;2022-12-20T10:47:49;2.7;;;1.1;;
72161;SDS011;60047;51.644;5.842;2022-12-20T10:53:04;2.6;;;1.0;;
72161;SDS011;60047;51.644;5.842;2022-12-20T10:57:49;2.4;;;1.0;;
72161;SDS011;60047;51.644;5.842;2022-12-20T11:03:03;1.7;;;1.0;;
72161;SDS011;60047;51.644;5.842;2022-12-20T11:07:54;1.7;;;1.0;;
72161;SDS011;60047;51.644;5.842;2022-12-20T11:12:53;3.3;;;0.9;;
72161;SDS011;60047;51.644;5.842;2022-12-20T11:17:51;2.3;;;1.0;;
72161;SDS011;60047;51.644;5.842;2022-12-20T11:23:38;2.7;;;1.0;;
72161;SDS011;60047;51.644;5.842;2022-12-20T11:29:24;2.0;;;1.0;;
72161;SDS011;60047;51.644;5.842;2022-12-20T11:34:43;3.7;;;0.9;;
72161;SDS011;60047;51.644;5.842;2022-12-20T11:39:14;1.9;;;0.9;;
72161;SDS011;60047;51.644;5.842;2022-12-20T11:44:16;2.3;;;0.8;;
72161;SDS011;60047;51.644;5.842;2022-12-20T11:50:41;3.0;;;0.8;;
72161;SDS011;60047;51.644;5.842;2022-12-20T11:54:29;2.2;;;1.0;;
72161;SDS011;60047;51.644;5.842;2022-12-20T11:58:05;2.8;;;1.0;;
72161;SDS011;60047;51.644;5.842;2022-12-20T12:03:02;4.9;;;1.2;;
72161;SDS011;60047;51.644;5.842;2022-12-20T12:07:52;2.3;;;0.9;;
72161;SDS011;60047;51.644;5.842;2022-12-20T12:12:59;4.7;;;1.1;;
72161;SDS011;60047;51.644;5.842;2022-12-20T12:17:56;2.2;;;1.2;;
72161;SDS011;60047;51.644;5.842;2022-12-20T12:22:50;2.2;;;1.1;;
72161;SDS011;60047;51.644;5.842;2022-12-20T12:27:49;1.9;;;1.1;;
72161;SDS011;60047;51.644;5.842;2022-12-20T12:33:04;1.6;;;1.0;;
72161;SDS011;60047;51.644;5.842;2022-12-20T12:39:33;2.0;;;1.1;;
72161;SDS011;60047;51.644;5.842;2022-12-20T12:44:56;1.7;;;0.9;;
72161;SDS011;60047;51.644;5.842;2022-12-20T12:47:59;3.3;;;1.0;;
72161;SDS011;60047;51.644;5.842;2022-12-20T12:52:53;2.6;;;0.9;;
72161;SDS011;60047;51.644;5.842;2022-12-20T12:57:57;2.9;;;1.3;;
72161;SDS011;60047;51.644;5.842;2022-12-20T13:02:50;3.1;;;1.1;;
72161;SDS011;60047;51.644;5.842;2022-12-20T13:07:49;1.9;;;0.8;;
72161;SDS011;60047;51.644;5.842;2022-12-20T13:13:20;1.5;;;1.0;;
72161;SDS011;60047;51.644;5.842;2022-12-20T13:17:59;1.7;;;1.1;;
72161;SDS011;60047;51.644;5.842;2022-12-20T13:23:13;1.8;;;0.8;;
72161;SDS011;60047;51.644;5.842;2022-12-20T13:27:49;1.4;;;1.0;;
72161;SDS011;60047;51.644;5.842;2022-12-20T13:33:48;2.2;;;1.0;;
72161;SDS011;60047;51.644;5.842;2022-12-20T13:38:41;1.8;;;1.0;;
72161;SDS011;60047;51.644;5.842;2022-12-20T13:42:49;1.8;;;1.0;;
72161;SDS011;60047;51.644;5.842;2022-12-20T13:48:02;2.8;;;1.0;;
72161;SDS011;60047;51.644;5.842;2022-12-20T13:52:49;3.4;;;1.0;;
72161;SDS011;60047;51.644;5.842;2022-12-20T13:57:49;3.4;;;0.8;;
72161;SDS011;60047;51.644;5.842;2022-12-20T14:02:49;1.5;;;0.9;;
72161;SDS011;60047;51.644;5.842;2022-12-20T14:07:50;1.6;;;1.0;;
72161;SDS011;60047;51.644;5.842;2022-12-20T14:12:49;3.1;;;0.9;;
72161;SDS011;60047;51.644;5.842;2022-12-20T14:17:49;1.6;;;1.0;;
72161;SDS011;60047;51.644;5.842;2022-12-20T14:22:52;1.6;;;1.0;;
72161;SDS011;60047;51.644;5.842;2022-12-20T14:27:49;1.8;;;0.9;;
72161;SDS011;60047;51.644;5.842;2022-12-20T14:32:49;1.0;;;0.8;;
72161;SDS011;60047;51.644;5.842;2022-12-20T14:37:56;2.6;;;0.9;;
72161;SDS011;60047;51.644;5.842;2022-12-20T14:42:49;1.6;;;0.9;;
72161;SDS011;60047;51.644;5.842;2022-12-20T14:47:56;1.0;;;0.9;;
72161;SDS011;60047;51.644;5.842;2022-12-20T14:52:49;1.7;;;0.8;;
72161;SDS011;60047;51.644;5.842;2022-12-20T14:57:51;2.0;;;0.8;;
72161;SDS011;60047;51.644;5.842;2022-12-20T15:02:51;2.5;;;1.0;;
72161;SDS011;60047;51.644;5.842;2022-12-20T15:07:49;1.6;;;1.2;;
72161;SDS011;60047;51.644;5.842;2022-12-20T15:12:50;1.3;;;0.8;;
72161;SDS011;60047;51.644;5.842;2022-12-20T15:17:50;1.3;;;0.8;;
72161;SDS011;60047;51.644;5.842;2022-12-20T15:22:50;1.2;;;0.9;;
72161;SDS011;60047;51.644;5.842;2022-12-20T15:32:49;1.7;;;0.7;;
72161;SDS011;60047;51.644;5.842;2022-12-20T15:37:50;4.6;;;1.1;;
72161;SDS011;60047;51.644;5.842;2022-12-20T19:23:22;7.7;;;2.2;;
72161;SDS011;60047;51.644;5.842;2022-12-20T19:28:21;5.5;;;1.4;;
72161;SDS011;60047;51.644;5.842;2022-12-20T19:33:22;4.3;;;1.4;;
72161;SDS011;60047;51.644;5.842;2022-12-20T19:38:22;7.5;;;1.6;;
72161;SDS011;60047;51.644;5.842;2022-12-20T19:43:22;3.5;;;1.5;;
72161;SDS011;60047;51.644;5.842;2022-12-20T19:48:22;4.0;;;1.5;;
72161;SDS011;60047;51.644;5.842;2022-12-20T19:53:22;4.6;;;1.6;;
72161;SDS011;60047;51.644;5.842;2022-12-20T19:58:22;3.0;;;1.2;;
72161;SDS011;60047;51.644;5.842;2022-12-20T20:00:45;5.2;;;1.9;;
72161;SDS011;60047;51.644;5.842;2022-12-20T20:05:43;4.7;;;1.8;;
72161;SDS011;60047;51.644;5.842;2022-12-20T20:10:43;5.0;;;1.8;;
72161;SDS011;60047;51.644;5.842;2022-12-20T20:15:48;4.5;;;1.8;;
72161;SDS011;60047;51.644;5.842;2022-12-20T20:20:43;4.0;;;1.5;;
72161;SDS011;60047;51.644;5.842;2022-12-20T20:25:44;3.0;;;1.4;;
72161;SDS011;60047;51.644;5.842;2022-12-20T20:30:44;3.4;;;1.6;;
72161;SDS011;60047;51.644;5.842;2022-12-20T20:35:51;3.3;;;1.6;;
72161;SDS011;60047;51.644;5.842;2022-12-20T20:40:43;5.1;;;1.5;;
72161;SDS011;60047;51.644;5.842;2022-12-20T20:50:43;2.9;;;1.5;;
72161;SDS011;60047;51.644;5.842;2022-12-20T20:55:43;3.3;;;1.7;;
72161;SDS011;60047;51.644;5.842;2022-12-20T21:00:43;3.5;;;1.4;;
72161;SDS011;60047;51.644;5.842;2022-12-20T21:05:43;4.1;;;1.4;;
72161;SDS011;60047;51.644;5.842;2022-12-20T21:10:43;2.9;;;1.6;;
72161;SDS011;60047;51.644;5.842;2022-12-20T21:15:43;4.1;;;1.7;;
72161;SDS011;60047;51.644;5.842;2022-12-20T21:20:43;4.8;;;1.9;;
72161;SDS011;60047;51.644;5.842;2022-12-20T21:25:43;4.3;;;1.5;;
72161;SDS011;60047;51.644;5.842;2022-12-20T21:30:43;2.7;;;1.3;;
72161;SDS011;60047;51.644;5.842;2022-12-20T21:35:43;1.9;;;1.5;;
72161;SDS011;60047;51.644;5.842;2022-12-20T21:40:43;2.5;;;1.3;;
72161;SDS011;60047;51.644;5.842;2022-12-20T21:45:48;3.7;;;1.7;;
72161;SDS011;60047;51.644;5.842;2022-12-20T21:50:43;2.2;;;1.4;;
72161;SDS011;60047;51.644;5.842;2022-12-20T21:55:43;3.5;;;1.6;;
72161;SDS011;60047;51.644;5.842;2022-12-20T22:00:43;2.6;;;1.6;;
72161;SDS011;60047;51.644;5.842;2022-12-20T22:05:44;3.2;;;1.4;;
72161;SDS011;60047;51.644;5.842;2022-12-20T22:10:43;3.0;;;1.6;;
72161;SDS011;60047;51.644;5.842;2022-12-20T22:15:43;2.2;;;1.4;;
72161;SDS011;60047;51.644;5.842;2022-12-20T22:20:44;3.2;;;1.4;;
72161;SDS011;60047;51.644;5.842;2022-12-20T22:25:44;4.6;;;1.9;;
72161;SDS011;60047;51.644;5.842;2022-12-20T22:30:43;1.8;;;1.4;;
72161;SDS011;60047;51.644;5.842;2022-12-20T22:35:43;2.1;;;1.4;;
72161;SDS011;60047;51.644;5.842;2022-12-20T22:40:43;2.1;;;1.4;;
72161;SDS011;60047;51.644;5.842;2022-12-20T22:45:53;1.7;;;1.2;;
72161;SDS011;60047;51.644;5.842;2022-12-20T22:50:44;3.2;;;1.3;;
72161;SDS011;60047;51.644;5.842;2022-12-20T22:55:44;3.3;;;1.5;;
72161;SDS011;60047;51.644;5.842;2022-12-20T23:00:44;2.6;;;1.5;;
72161;SDS011;60047;51.644;5.842;2022-12-20T23:05:49;2.2;;;1.3;;
72161;SDS011;60047;51.644;5.842;2022-12-20T23:10:44;2.2;;;1.3;;
72161;SDS011;60047;51.644;5.842;2022-12-20T23:15:45;2.7;;;1.2;;
72161;SDS011;60047;51.644;5.842;2022-12-20T23:20:47;1.8;;;1.3;;
72161;SDS011;60047;51.644;5.842;2022-12-20T23:25:44;1.8;;;1.2;;
72161;SDS011;60047;51.644;5.842;2022-12-20T23:30:44;2.1;;;1.4;;
72161;SDS011;60047;51.644;5.842;2022-12-20T23:35:44;2.4;;;1.2;;
72161;SDS011;60047;51.644;5.842;2022-12-20T23:40:44;1.2;;;1.2;;
72161;SDS011;60047;51.644;5.842;2022-12-20T23:45:44;1.8;;;1.6;;
72161;SDS011;60047;51.644;5.842;2022-12-20T23:50:44;2.4;;;1.5;;
72161;SDS011;60047;51.644;5.842;2022-12-20T23:55:49;1.3;;;1.1;;
